Time;durP1;ratioP1;P1;durP2;ratioP2;P2;SDS_P1;SDS_P2;PMS_P1;PMS_P2;Temp;Humidity;BMP_temperature;BMP_pressure;BME280_temperature;BME280_humidity;BME280_pressure;Samples;Min_cycle;Max_cycle;Signal;HPM_P1;HPM_P2
2023/01/09 00:00:17;;;;;;;18.95;4.22;;;8.30;99.90;;;7.73;100.00;99908.53;4163664;28;20409;-72
2023/01/09 00:02:18;;;;;;;15.52;3.17;;;8.50;99.90;;;7.67;100.00;99917.03;4153457;28;20083;-71
2023/01/09 00:04:19;;;;;;;13.25;3.25;;;8.50;99.90;;;7.65;100.00;99918.16;4152101;28;20038;-71
2023/01/09 00:06:20;;;;;;;14.95;2.80;;;8.50;99.90;;;7.66;100.00;99894.38;4151703;28;20060;-72
2023/01/09 00:08:22;;;;;;;18.58;3.17;;;8.50;99.90;;;7.55;100.00;99897.28;4196069;28;20024;-72
2023/01/09 00:10:23;;;;;;;13.90;3.83;;;8.50;99.90;;;7.55;100.00;99899.91;4161559;28;20032;-72
2023/01/09 00:12:24;;;;;;;13.15;2.30;;;8.40;99.90;;;7.48;100.00;99903.31;4135779;28;20022;-72
2023/01/09 00:14:25;;;;;;;11.32;2.25;;;8.30;99.90;;;7.31;100.00;99896.34;4152394;28;20018;-72
2023/01/09 00:16:26;;;;;;;13.15;2.60;;;8.30;99.90;;;7.45;100.00;99901.81;4153383;28;20041;-71
2023/01/09 00:18:27;;;;;;;14.10;2.42;;;8.30;99.90;;;7.30;100.00;99902.56;4152271;28;20050;-71
2023/01/09 00:20:27;;;;;;;11.30;3.25;;;8.20;99.90;;;7.20;100.00;99907.91;4185352;28;20381;-72
2023/01/09 00:22:29;;;;;;;16.67;3.10;;;8.10;99.90;;;7.31;100.00;99906.84;4157456;28;20025;-72
2023/01/09 00:24:30;;;;;;;14.90;3.17;;;8.10;99.90;;;7.37;100.00;99904.41;4157582;28;20037;-71
2023/01/09 00:26:32;;;;;;;16.33;3.28;;;8.10;99.90;;;7.33;100.00;99895.19;4152135;28;20141;-71
2023/01/09 00:28:34;;;;;;;14.10;2.85;;;8.20;99.90;;;7.19;100.00;99898.41;4152439;28;20076;-71
2023/01/09 00:30:34;;;;;;;14.90;2.83;;;8.10;99.90;;;7.14;100.00;99890.97;4153442;28;20030;-71
2023/01/09 00:32:35;;;;;;;21.00;2.85;;;8.10;99.90;;;7.16;100.00;99902.16;4153447;28;20397;-71
2023/01/09 00:34:38;;;;;;;14.63;2.35;;;8.00;99.90;;;7.29;100.00;99906.16;4153301;28;20032;-71
2023/01/09 00:36:39;;;;;;;16.65;2.42;;;8.10;99.90;;;7.18;100.00;99915.09;4152194;28;20022;-71
2023/01/09 00:38:40;;;;;;;16.90;2.80;;;8.10;99.90;;;7.00;100.00;99906.47;4152003;28;20389;-71
2023/01/09 00:40:41;;;;;;;12.48;2.97;;;8.00;99.90;;;6.97;100.00;99925.13;4152174;28;20025;-71
2023/01/09 00:42:45;;;;;;;12.32;2.80;;;7.90;99.90;;;7.00;100.00;99911.72;4152087;28;20465;-71
2023/01/09 00:44:52;;;;;;;13.73;3.40;;;7.90;99.90;;;6.99;100.00;99916.13;4152062;28;20049;-72
2023/01/09 00:47:04;;;;;;;17.38;3.72;;;7.90;99.90;;;7.00;100.00;99925.66;4152187;28;20030;-72
2023/01/09 00:49:06;;;;;;;18.13;2.65;;;7.90;99.90;;;7.00;100.00;99922.19;4152321;28;20029;-72
2023/01/09 00:51:08;;;;;;;22.25;3.67;;;7.90;99.90;;;7.01;100.00;99924.69;4156367;28;20021;-72
2023/01/09 00:53:16;;;;;;;14.25;3.42;;;7.90;99.90;;;7.03;100.00;99937.63;4161399;28;20042;-72
2023/01/09 00:55:17;;;;;;;16.42;3.30;;;7.90;99.90;;;6.96;100.00;99933.97;4151946;28;20034;-72
2023/01/09 00:57:18;;;;;;;13.82;2.90;;;7.90;99.90;;;6.88;100.00;99936.53;4152773;28;20022;-72
2023/01/09 00:59:18;;;;;;;23.27;3.63;;;7.80;99.90;;;7.15;100.00;99937.22;4153158;28;20068;-72
2023/01/09 01:01:19;;;;;;;15.07;3.10;;;7.90;99.90;;;7.28;100.00;99949.13;4153044;28;20040;-72
2023/01/09 01:03:20;;;;;;;17.45;3.00;;;8.00;99.90;;;7.23;100.00;99955.63;4152975;28;20402;-72
2023/01/09 01:07:42;;;;;;;22.92;4.32;;;8.10;99.90;;;7.22;100.00;99961.03;4152708;28;20041;-71
2023/01/09 01:09:42;;;;;;;20.58;2.55;;;8.10;99.90;;;7.15;100.00;99952.13;4151800;28;20030;-72
2023/01/09 01:11:43;;;;;;;12.93;2.30;;;8.10;99.90;;;7.52;100.00;99967.63;4151734;28;20510;-72
2023/01/09 01:13:44;;;;;;;11.20;2.53;;;8.20;99.90;;;7.35;100.00;99971.13;4152806;28;20025;-72
2023/01/09 01:15:45;;;;;;;16.60;2.35;;;8.20;99.90;;;7.26;100.00;99978.09;4157987;28;20037;-72
2023/01/09 01:17:46;;;;;;;18.63;2.42;;;8.20;99.90;;;7.24;100.00;99977.44;4151586;28;20486;-72
2023/01/09 01:19:47;;;;;;;10.30;1.80;;;8.10;99.90;;;7.19;100.00;99967.44;4152836;28;20041;-72
2023/01/09 01:21:48;;;;;;;19.35;2.70;;;8.10;99.90;;;7.19;100.00;99966.59;4152670;28;20034;-71
2023/01/09 01:23:49;;;;;;;12.05;3.35;;;8.10;99.90;;;7.13;100.00;99952.31;4152622;28;20092;-71
2023/01/09 01:25:50;;;;;;;16.73;2.75;;;8.00;99.90;;;7.14;100.00;99956.56;4151511;28;20175;-72
2023/01/09 01:27:51;;;;;;;12.07;1.65;;;8.00;99.90;;;7.24;100.00;99965.16;4167769;28;20022;-71
2023/01/09 01:29:52;;;;;;;11.95;1.92;;;8.10;99.90;;;7.13;100.00;99961.97;4152594;28;20109;-72
2023/01/09 01:31:53;;;;;;;10.35;1.73;;;8.00;99.90;;;7.00;100.00;99958.91;4151337;28;20026;-71
2023/01/09 01:33:54;;;;;;;10.65;2.50;;;7.90;99.90;;;7.12;100.00;99966.38;4151212;28;20512;-71
2023/01/09 01:36:07;;;;;;;11.63;1.85;;;7.90;99.90;;;7.06;100.00;99981.91;4151366;28;20413;-71
2023/01/09 01:38:08;;;;;;;10.00;1.98;;;7.90;99.90;;;6.88;100.00;99989.78;4151249;28;20021;-71
2023/01/09 01:40:11;;;;;;;10.32;2.55;;;7.90;99.90;;;6.84;100.00;99990.25;4152576;28;20034;-72
2023/01/09 01:42:13;;;;;;;13.27;2.53;;;7.80;99.90;;;6.94;100.00;99989.19;4152584;28;20065;-72
2023/01/09 01:45:03;;;;;;;14.88;2.22;;;7.80;99.90;;;6.79;100.00;99997.72;4155009;28;20040;-72
2023/01/09 01:47:04;;;;;;;16.48;2.88;;;7.70;99.90;;;6.64;100.00;99987.75;4152397;28;20034;-72
2023/01/09 01:49:19;;;;;;;15.32;2.17;;;7.60;99.90;;;6.57;100.00;99994.56;4151104;28;20592;-72
2023/01/09 01:51:22;;;;;;;11.75;2.50;;;7.60;99.90;;;6.53;100.00;100002.88;4155959;28;20021;-72
2023/01/09 01:53:38;;;;;;;19.27;2.10;;;7.50;99.90;;;6.58;100.00;99998.00;4158751;28;20042;-72
2023/01/09 01:56:13;;;;;;;8.85;2.55;;;7.50;99.90;;;6.50;100.00;99997.94;4168447;28;20283;-72
2023/01/09 01:58:15;;;;;;;7.60;2.23;;;7.50;99.90;;;6.41;100.00;100007.50;4163948;28;20108;-72
2023/01/09 02:00:21;;;;;;;11.63;3.22;;;7.40;99.90;;;6.36;100.00;100001.88;4168475;28;20274;-72
2023/01/09 02:02:28;;;;;;;14.60;2.47;;;7.30;99.90;;;6.37;100.00;99994.84;4151450;28;20041;-72
2023/01/09 02:04:32;;;;;;;22.67;2.67;;;7.30;99.90;;;6.28;100.00;100000.94;4168565;28;20033;-72
2023/01/09 02:06:34;;;;;;;18.33;2.38;;;7.30;99.90;;;6.34;100.00;100006.44;4151230;28;20053;-72
2023/01/09 02:08:35;;;;;;;10.82;2.70;;;7.20;99.90;;;6.32;100.00;100004.94;4155174;28;20512;-72
2023/01/09 02:10:38;;;;;;;14.57;2.88;;;7.30;99.90;;;6.43;100.00;100015.19;4150881;28;20089;-72
2023/01/09 02:12:39;;;;;;;21.15;3.80;;;7.30;99.90;;;6.35;100.00;100015.13;4151079;28;20084;-72
2023/01/09 02:14:40;;;;;;;10.63;2.42;;;7.30;99.90;;;6.30;100.00;100031.25;4151072;28;20449;-72
2023/01/09 02:17:05;;;;;;;13.73;3.40;;;7.30;99.90;;;6.30;100.00;100039.13;4150874;28;20025;-72
2023/01/09 02:19:46;;;;;;;14.65;2.90;;;7.20;99.90;;;6.35;100.00;100046.56;4168474;28;20434;-72
2023/01/09 02:22:08;;;;;;;9.27;2.92;;;7.20;99.90;;;6.36;100.00;100064.72;4168294;28;20428;-72
2023/01/09 02:24:21;;;;;;;14.80;2.95;;;7.20;99.90;;;6.27;100.00;100063.00;4168214;28;20401;-72
2023/01/09 02:26:54;;;;;;;16.35;3.13;;;7.30;99.90;;;6.41;100.00;100075.63;4168249;28;20034;-72
2023/01/09 02:29:25;;;;;;;15.50;3.45;;;7.30;99.90;;;6.73;100.00;100090.03;4153423;28;20064;-71
2023/01/09 02:31:38;;;;;;;15.68;2.65;;;7.40;99.90;;;6.93;100.00;100102.06;4168141;28;20116;-72
2023/01/09 02:34:07;;;;;;;12.23;3.28;;;7.60;99.90;;;7.15;100.00;100112.13;4168336;28;20069;-72
2023/01/09 02:36:24;;;;;;;17.85;3.78;;;7.80;99.90;;;7.21;100.00;100114.16;4168466;28;20017;-72
2023/01/09 02:39:10;;;;;;;9.25;2.83;;;8.00;99.90;;;7.58;100.00;100119.22;4151936;28;20508;-72
2023/01/09 02:41:41;;;;;;;14.18;2.33;;;8.20;99.90;;;7.45;100.00;100098.63;4153709;28;20029;-72
2023/01/09 02:43:43;;;;;;;9.98;1.88;;;8.30;99.90;;;7.29;100.00;100087.97;4150647;28;20040;-72
2023/01/09 02:45:43;;;;;;;9.73;1.85;;;8.20;99.90;;;7.08;100.00;100090.06;4152276;28;20090;-73
2023/01/09 02:47:46;;;;;;;14.40;2.30;;;8.10;99.90;;;7.01;100.00;100073.31;4170574;28;20025;-73
2023/01/09 02:49:55;;;;;;;8.00;1.85;;;8.00;99.90;;;6.98;100.00;100063.94;4137704;28;20029;-72
2023/01/09 02:52:17;;;;;;;19.25;2.75;;;7.90;99.90;;;6.82;100.00;100069.03;4157304;28;20053;-72
2023/01/09 02:54:45;;;;;;;8.32;2.15;;;7.80;99.90;;;6.65;100.00;100070.66;4156863;28;20044;-72
2023/01/09 02:57:08;;;;;;;13.55;2.83;;;7.70;99.90;;;6.51;100.00;100059.84;4171283;28;20037;-72
2023/01/09 02:59:22;;;;;;;10.10;3.00;;;7.60;99.90;;;6.44;100.00;100069.25;4156199;28;20022;-71
2023/01/09 03:01:54;;;;;;;;;;;7.40;99.90;;;6.22;100.00;100074.88;4154952;28;20070;-72
2023/01/09 03:04:31;;;;;;;12.10;2.63;;;7.30;99.90;;;6.07;100.00;100075.34;4153497;28;19909;-72
2023/01/09 03:07:06;;;;;;;12.75;2.95;;;7.20;99.90;;;5.92;100.00;100068.09;4170954;28;20595;-72
2023/01/09 03:09:21;;;;;;;10.90;2.70;;;7.00;99.90;;;5.84;100.00;100075.81;4156437;28;20024;-71
2023/01/09 03:11:27;;;;;;;17.15;2.08;;;6.90;99.90;;;5.70;100.00;100073.63;4153993;28;20026;-72
2023/01/09 03:13:43;;;;;;;10.63;1.92;;;6.70;99.90;;;5.89;100.00;100078.84;4153714;28;20025;-72
2023/01/09 03:15:49;;;;;;;12.85;1.90;;;6.70;99.90;;;5.89;100.00;100084.91;4155226;28;20097;-72
2023/01/09 03:17:51;;;;;;;15.68;2.00;;;6.80;99.90;;;5.85;100.00;100087.94;4154042;28;20034;-72
2023/01/09 03:19:53;;;;;;;12.73;2.40;;;6.80;99.90;;;5.86;100.00;100086.97;4162332;28;20100;-71
2023/01/09 03:21:55;;;;;;;16.70;3.28;;;6.70;99.90;;;6.00;100.00;100091.78;4171003;28;20408;-71
2023/01/09 03:24:00;;;;;;;9.60;2.30;;;6.80;99.90;;;6.04;100.00;100103.59;4170713;28;20028;-72
2023/01/09 03:26:01;;;;;;;7.25;2.25;;;6.90;99.90;;;5.93;100.00;100106.38;4170798;28;20037;-71
2023/01/09 03:28:17;;;;;;;12.13;2.55;;;6.90;99.90;;;5.83;100.00;100103.75;4153233;28;20021;-72
2023/01/09 03:30:18;;;;;;;16.25;2.42;;;6.80;99.90;;;5.86;100.00;100126.22;4154692;28;20037;-72
2023/01/09 03:32:19;;;;;;;10.35;2.28;;;6.80;99.90;;;5.90;100.00;100127.63;4170880;28;20485;-71
2023/01/09 03:34:20;;;;;;;16.08;2.78;;;6.90;99.90;;;5.95;100.00;100143.72;4170808;28;20032;-72
2023/01/09 03:36:24;;;;;;;12.63;1.98;;;6.90;99.90;;;6.04;100.00;100151.56;4170763;28;20036;-71
2023/01/09 03:38:25;;;;;;;8.52;2.22;;;7.00;99.90;;;6.22;100.00;100167.34;4153059;28;20595;-71
2023/01/09 03:40:25;;;;;;;10.48;2.03;;;7.10;99.90;;;6.25;100.00;100159.22;4170715;28;20095;-72
2023/01/09 03:42:26;;;;;;;10.82;1.70;;;7.10;99.90;;;6.38;100.00;100164.13;4170396;28;20076;-72
2023/01/09 03:44:27;;;;;;;8.93;2.35;;;7.20;99.90;;;6.42;100.00;100168.13;4173076;28;20036;-72
2023/01/09 03:46:28;;;;;;;9.38;1.58;;;7.20;99.90;;;6.42;100.00;100171.56;4170590;28;20036;-72
2023/01/09 03:48:29;;;;;;;9.52;2.08;;;7.30;99.90;;;6.30;100.00;100166.66;4170618;28;20489;-72
2023/01/09 03:50:30;;;;;;;11.93;1.67;;;7.30;99.90;;;6.42;100.00;100145.34;4152942;28;20037;-71
2023/01/09 03:52:31;;;;;;;12.13;2.05;;;7.30;99.90;;;6.35;100.00;100139.06;4170115;28;20038;-72
2023/01/09 03:54:32;;;;;;;10.55;1.95;;;7.30;99.90;;;6.22;100.00;100143.78;4170606;28;20108;-72
2023/01/09 03:56:33;;;;;;;10.70;2.00;;;7.20;99.90;;;6.15;100.00;100149.75;4169426;28;20497;-72
2023/01/09 03:58:34;;;;;;;8.43;1.77;;;7.10;99.90;;;5.99;100.00;100147.72;4170185;28;20061;-72
2023/01/09 04:00:34;;;;;;;15.77;3.03;;;7.00;99.90;;;5.95;100.00;100156.78;4152466;28;20053;-72
2023/01/09 04:02:35;;;;;;;8.07;1.88;;;6.90;99.90;;;5.84;100.00;100163.00;4170434;28;20033;-72
2023/01/09 04:04:36;;;;;;;9.02;2.13;;;6.80;99.90;;;5.93;100.00;100175.28;4172789;28;20052;-72
2023/01/09 04:06:37;;;;;;;8.15;2.30;;;6.80;99.90;;;5.92;100.00;100164.94;4170202;28;20029;-71
2023/01/09 04:08:38;;;;;;;13.00;3.25;;;6.80;99.90;;;5.83;100.00;100173.59;4169916;28;20080;-72
2023/01/09 04:10:42;;;;;;;9.25;1.42;;;6.70;99.90;;;5.75;100.00;100170.84;4170330;28;20029;-71
2023/01/09 04:12:43;;;;;;;10.18;1.90;;;6.70;99.90;;;5.64;100.00;100168.38;4153052;28;20026;-72
2023/01/09 04:14:44;;;;;;;10.15;2.90;;;6.60;99.90;;;5.48;100.00;100175.00;4152686;28;20045;-72
2023/01/09 04:16:45;;;;;;;4.85;1.85;;;6.50;99.90;;;5.53;100.00;100178.00;4152274;28;20444;-72
2023/01/09 04:18:46;;;;;;;16.75;2.70;;;6.50;99.90;;;5.43;100.00;100174.59;4152552;28;20042;-72
2023/01/09 04:20:47;;;;;;;8.23;1.60;;;6.40;99.90;;;5.49;100.00;100171.44;4169986;28;20083;-71
2023/01/09 04:22:48;;;;;;;16.05;4.25;;;6.40;99.90;;;5.42;100.00;100185.19;4178964;28;20531;-72
2023/01/09 04:24:49;;;;;;;7.35;1.60;;;6.40;99.90;;;5.41;100.00;100184.34;4183392;28;20021;-72
2023/01/09 04:26:50;;;;;;;9.43;2.20;;;6.40;99.90;;;5.40;100.00;100189.72;4168708;28;20033;-71
2023/01/09 04:28:50;;;;;;;8.13;2.15;;;6.40;99.90;;;5.33;100.00;100197.28;4170011;28;20396;-72
2023/01/09 04:30:51;;;;;;;15.60;2.50;;;6.30;99.90;;;5.36;100.00;100204.84;4169977;28;20025;-72
2023/01/09 04:32:52;;;;;;;11.45;3.03;;;6.30;99.90;;;5.31;100.00;100209.69;4169793;28;20028;-72
2023/01/09 04:34:54;;;;;;;10.77;2.15;;;6.30;99.90;;;5.23;100.00;100200.81;4178493;28;20030;-72
2023/01/09 04:36:55;;;;;;;7.75;1.90;;;6.30;99.90;;;5.17;100.00;100211.84;4168176;28;20045;-72
2023/01/09 04:38:56;;;;;;;13.65;2.47;;;6.20;99.90;;;5.17;100.00;100215.28;4152019;28;20493;-72
2023/01/09 04:40:57;;;;;;;12.30;2.55;;;6.20;99.90;;;5.29;100.00;100226.44;4169718;28;20052;-72
2023/01/09 04:42:58;;;;;;;9.55;2.72;;;6.20;99.90;;;5.14;100.00;100226.00;4152004;28;20060;-72
2023/01/09 04:44:59;;;;;;;7.55;1.75;;;6.10;99.90;;;5.07;100.00;100222.28;4157817;28;20433;-72
2023/01/09 04:47:00;;;;;;;9.25;2.45;;;6.10;99.90;;;5.21;100.00;100240.19;4169623;28;20064;-72
2023/01/09 04:49:00;;;;;;;12.75;2.08;;;6.10;99.90;;;5.06;100.00;100233.69;4152044;28;20030;-72
2023/01/09 04:51:01;;;;;;;12.18;2.25;;;6.10;99.90;;;5.18;100.00;100240.47;4154318;28;20510;-72
2023/01/09 04:53:02;;;;;;;11.93;2.30;;;6.10;99.90;;;5.13;100.00;100229.59;4162058;28;20042;-72
2023/01/09 04:55:04;;;;;;;12.75;1.90;;;6.10;99.90;;;5.13;100.00;100229.59;4155564;28;20033;-72
2023/01/09 04:57:05;;;;;;;16.92;2.85;;;6.10;99.90;;;5.11;100.00;100228.88;4151571;28;20030;-72
2023/01/09 04:59:07;;;;;;;13.10;2.40;;;6.10;99.90;;;5.14;100.00;100236.44;4151843;28;20034;-72
2023/01/09 05:01:08;;;;;;;16.45;2.25;;;6.10;99.90;;;5.26;100.00;100243.22;4169331;28;20101;-71
2023/01/09 05:03:09;;;;;;;9.48;1.85;;;6.20;99.90;;;5.35;100.00;100247.66;4152018;28;20395;-71
2023/01/09 05:05:11;;;;;;;11.55;2.38;;;6.30;99.90;;;5.43;100.00;100242.59;4152629;28;20516;-72
2023/01/09 05:07:12;;;;;;;10.50;2.47;;;6.30;99.90;;;5.44;100.00;100225.09;4169225;28;20022;-72
2023/01/09 05:09:13;;;;;;;12.10;3.00;;;6.30;99.90;;;5.49;100.00;100233.38;4151369;28;20018;-72
2023/01/09 05:11:14;;;;;;;12.48;1.88;;;6.40;99.90;;;5.54;100.00;100226.78;4169287;28;20034;-72
2023/01/09 05:13:15;;;;;;;15.13;2.47;;;6.40;99.90;;;5.60;100.00;100230.63;4151693;28;20511;-72
2023/01/09 05:15:16;;;;;;;11.45;1.83;;;6.40;99.90;;;5.51;100.00;100224.41;4181219;28;20025;-72
2023/01/09 05:17:17;;;;;;;10.25;2.00;;;6.40;99.90;;;5.44;100.00;100207.59;4151642;28;20417;-72
2023/01/09 05:19:18;;;;;;;10.60;2.72;;;6.40;99.90;;;5.42;100.00;100211.31;4151683;28;20103;-72
2023/01/09 05:21:19;;;;;;;8.05;1.60;;;6.40;99.90;;;5.36;100.00;100220.56;4184412;28;20063;-72
2023/01/09 05:23:20;;;;;;;7.00;2.33;;;6.30;99.90;;;5.45;100.00;100235.44;4168765;28;20033;-72
2023/01/09 05:25:20;;;;;;;10.18;1.88;;;6.30;99.90;;;5.48;100.00;100236.94;4161084;28;20101;-72
2023/01/09 05:27:21;;;;;;;10.30;2.78;;;6.40;99.90;;;5.53;100.00;100237.34;4169071;28;20025;-72
2023/01/09 05:29:22;;;;;;;8.00;1.80;;;6.40;99.90;;;5.51;100.00;100239.28;4151455;28;20464;-72
2023/01/09 05:31:26;;;;;;;6.63;1.17;;;6.40;99.90;;;5.59;100.00;100247.28;4167609;28;20028;-72
2023/01/09 05:33:26;;;;;;;5.40;2.15;;;6.40;99.90;;;5.39;100.00;100248.22;4181601;28;20464;-72
2023/01/09 05:35:28;;;;;;;10.23;1.95;;;6.40;99.90;;;5.40;100.00;100250.72;4176077;28;20052;-72
2023/01/09 05:37:29;;;;;;;7.65;1.35;;;6.40;99.90;;;5.57;100.00;100246.59;4168579;28;20025;-72
2023/01/09 05:39:29;;;;;;;6.00;1.63;;;6.50;99.90;;;5.65;100.00;100256.38;4168735;28;20033;-71
2023/01/09 05:41:31;;;;;;;8.13;2.03;;;6.50;99.90;;;5.58;100.00;100256.91;4151310;28;20018;-72
2023/01/09 05:43:32;;;;;;;6.13;1.20;;;6.50;99.90;;;5.50;100.00;100261.16;4151267;28;20129;-72
2023/01/09 05:45:33;;;;;;;9.63;1.73;;;6.40;99.90;;;5.53;100.00;100263.50;4155956;28;20498;-72
2023/01/09 05:47:35;;;;;;;8.73;1.60;;;6.40;99.90;;;5.33;100.00;100265.28;4151102;28;20046;-72
2023/01/09 05:49:36;;;;;;;7.40;1.30;;;6.40;99.90;;;5.23;100.00;100281.88;4151294;28;20100;-72
2023/01/09 05:51:36;;;;;;;9.25;1.98;;;6.30;99.90;;;5.23;100.00;100282.72;4175495;28;20039;-72
2023/01/09 05:53:37;;;;;;;4.15;1.48;;;6.20;99.90;;;5.15;100.00;100264.25;4174189;28;20036;-72
2023/01/09 05:55:40;;;;;;;8.82;1.52;;;6.20;99.90;;;5.18;100.00;100274.44;4153170;28;20046;-72
2023/01/09 05:57:40;;;;;;;5.60;1.75;;;6.10;99.90;;;5.22;100.00;100280.25;4168778;28;20025;-72
2023/01/09 05:59:41;;;;;;;7.88;1.85;;;6.10;99.90;;;5.13;100.00;100287.09;4168748;28;20562;-72
2023/01/09 06:01:42;;;;;;;6.78;2.05;;;6.10;99.90;;;5.12;100.00;100297.69;4151120;28;20052;-72
2023/01/09 06:03:43;;;;;;;7.55;2.28;;;6.10;99.90;;;5.01;100.00;100291.59;4168802;28;20104;-72
2023/01/09 06:05:44;;;;;;;9.05;2.17;;;6.00;99.90;;;5.08;100.00;100296.31;4168606;28;20034;-72
2023/01/09 06:07:45;;;;;;;7.10;1.55;;;6.00;99.90;;;5.28;100.00;100287.56;4150942;28;20617;-72
2023/01/09 06:09:46;;;;;;;7.88;2.10;;;6.10;99.90;;;5.13;100.00;100296.72;4150895;28;20022;-72
2023/01/09 06:11:47;;;;;;;13.55;2.75;;;6.10;99.90;;;5.08;100.00;100304.94;4183597;28;20056;-72
2023/01/09 06:13:47;;;;;;;11.77;1.85;;;6.10;99.90;;;5.09;100.00;100297.94;4151895;28;20021;-72
2023/01/09 06:15:48;;;;;;;4.15;1.55;;;6.00;99.90;;;5.27;100.00;100307.66;4178843;28;20038;-72
2023/01/09 06:17:49;;;;;;;4.60;1.17;;;6.20;99.90;;;5.26;100.00;100315.59;4157332;28;20029;-72
2023/01/09 06:19:50;;;;;;;9.30;1.75;;;6.20;99.90;;;5.42;100.00;100300.25;4167598;28;20029;-72
2023/01/09 06:21:52;;;;;;;9.90;1.20;;;6.20;99.90;;;5.35;100.00;100304.34;4168293;28;20029;-72
2023/01/09 06:23:53;;;;;;;9.82;1.27;;;6.30;99.90;;;5.55;100.00;100306.88;4169961;28;20396;-71
2023/01/09 06:25:54;;;;;;;5.88;1.20;;;6.30;99.90;;;5.59;100.00;100323.97;4175411;28;20029;-72
2023/01/09 06:27:55;;;;;;;6.85;1.15;;;6.40;99.90;;;5.62;100.00;100340.34;4150737;28;20487;-71
2023/01/09 06:29:56;;;;;;;12.23;2.10;;;6.50;99.90;;;5.61;100.00;100330.88;4168218;28;20026;-72
2023/01/09 06:31:56;;;;;;;10.20;1.48;;;6.50;99.90;;;5.65;100.00;100340.09;4150867;28;20021;-71
2023/01/09 06:33:57;;;;;;;6.18;1.80;;;6.50;99.90;;;5.58;100.00;100345.84;4159257;28;20032;-71
2023/01/09 06:35:58;;;;;;;6.03;1.48;;;6.50;99.90;;;5.52;100.00;100351.66;4172562;28;20451;-72
2023/01/09 06:38:01;;;;;;;10.35;1.45;;;6.50;99.90;;;5.52;100.00;100351.66;4150461;28;20041;-71
2023/01/09 06:40:03;;;;;;;6.55;1.50;;;6.40;99.90;;;5.48;100.00;100358.09;4151046;28;20132;-71
2023/01/09 06:42:04;;;;;;;8.32;1.65;;;6.40;99.90;;;5.41;100.00;100356.97;4168217;28;20067;-72
2023/01/09 06:44:05;;;;;;;9.30;2.25;;;6.40;99.90;;;5.41;100.00;100361.38;4150477;28;20038;-72
2023/01/09 06:46:06;;;;;;;5.22;1.50;;;6.30;99.90;;;5.30;100.00;100367.53;4167620;28;20377;-72
2023/01/09 06:48:07;;;;;;;4.97;1.20;;;6.30;99.90;;;5.34;100.00;100360.25;4150849;28;20022;-72
2023/01/09 06:50:09;;;;;;;12.00;1.35;;;6.30;99.90;;;5.14;100.00;100355.91;4168282;28;20032;-71
2023/01/09 06:52:10;;;;;;;7.07;1.45;;;6.20;99.90;;;5.26;100.00;100370.53;4179722;28;20041;-71
2023/01/09 06:54:10;;;;;;;6.55;1.48;;;6.20;99.90;;;5.25;100.00;100374.94;4169109;28;20512;-72
2023/01/09 06:56:11;;;;;;;7.40;1.02;;;6.20;99.90;;;5.23;100.00;100379.47;4171727;28;20026;-72
2023/01/09 06:58:13;;;;;;;7.70;1.90;;;6.20;99.90;;;5.16;100.00;100375.72;4168108;28;20104;-71
2023/01/09 07:00:14;;;;;;;4.43;1.38;;;6.10;99.90;;;5.07;100.00;100380.91;4168030;28;20028;-72
2023/01/09 07:02:20;;;;;;;8.25;2.08;;;6.10;99.90;;;5.00;100.00;100368.34;4167894;28;20112;-72
2023/01/09 07:04:22;;;;;;;7.55;2.03;;;6.00;99.90;;;5.19;100.00;100383.31;4150392;28;20033;-72
2023/01/09 07:06:22;;;;;;;6.97;1.52;;;6.10;99.90;;;5.16;100.00;100374.91;4168023;28;20029;-72
2023/01/09 07:08:23;;;;;;;4.78;1.40;;;6.10;99.90;;;5.18;100.00;100386.03;4150271;28;20032;-72
2023/01/09 07:10:24;;;;;;;8.18;1.50;;;6.10;99.90;;;5.01;100.00;100387.47;4167828;28;20030;-72
2023/01/09 07:12:25;;;;;;;8.43;2.00;;;6.10;99.90;;;4.95;100.00;100390.63;4150519;28;20464;-72
2023/01/09 07:14:26;;;;;;;6.53;1.80;;;6.00;99.90;;;4.99;100.00;100382.38;4150481;28;20030;-72
2023/01/09 07:16:27;;;;;;;9.10;1.88;;;6.00;99.90;;;4.97;100.00;100389.53;4167981;28;20022;-72
2023/01/09 07:18:28;;;;;;;7.10;1.92;;;5.90;99.90;;;4.98;100.00;100396.41;4167823;28;20033;-72
2023/01/09 07:20:29;;;;;;;8.32;1.88;;;5.90;99.90;;;5.08;100.00;100399.06;4150297;28;20030;-72
2023/01/09 07:22:29;;;;;;;7.60;2.25;;;5.90;99.90;;;5.02;100.00;100412.66;4174272;28;20040;-71
2023/01/09 07:24:30;;;;;;;10.30;1.55;;;6.00;99.90;;;5.02;100.00;100410.88;4167764;28;20079;-72
2023/01/09 07:26:31;;;;;;;11.85;1.80;;;6.00;99.90;;;4.85;100.00;100416.69;4150242;28;20105;-72
2023/01/09 07:28:32;;;;;;;7.07;2.08;;;5.90;99.90;;;4.77;100.00;100416.50;4168013;28;20021;-72
2023/01/09 07:30:33;;;;;;;7.15;2.42;;;5.80;99.90;;;4.70;100.00;100415.34;4167973;28;20037;-72
2023/01/09 07:32:34;;;;;;;9.80;1.77;;;5.70;99.90;;;4.80;100.00;100428.47;4170599;28;20028;-72
2023/01/09 07:34:35;;;;;;;7.75;1.50;;;5.70;99.90;;;4.79;100.00;100427.63;4169422;28;20524;-72
2023/01/09 07:36:36;;;;;;;6.32;2.55;;;5.70;99.90;;;4.80;100.00;100449.38;4153355;28;20096;-71
2023/01/09 07:38:36;;;;;;;7.05;1.55;;;5.80;99.90;;;4.98;100.00;100455.69;4170583;28;20030;-72
2023/01/09 07:40:38;;;;;;;15.50;2.17;;;5.80;99.90;;;5.00;100.00;100457.22;4170729;28;20575;-72
2023/01/09 07:42:38;;;;;;;8.98;1.77;;;5.90;99.90;;;4.98;100.00;100463.53;4170464;28;20030;-72
2023/01/09 07:44:39;;;;;;;11.93;1.40;;;5.90;99.90;;;4.91;100.00;100472.84;4170567;28;20029;-72
2023/01/09 07:46:40;;;;;;;5.97;1.77;;;5.80;99.90;;;4.83;100.00;100467.41;4179086;28;20136;-72
2023/01/09 07:48:41;;;;;;;7.30;1.55;;;5.80;99.90;;;4.81;100.00;100474.53;4148008;28;20032;-72
2023/01/09 07:50:42;;;;;;;9.18;1.85;;;5.80;99.90;;;4.75;100.00;100482.91;4170527;28;20034;-72
2023/01/09 07:52:46;;;;;;;5.82;1.70;;;5.70;99.90;;;4.75;100.00;100494.16;4170164;28;20053;-71
2023/01/09 07:54:47;;;;;;;6.35;1.70;;;5.70;99.90;;;4.70;100.00;100490.25;4153027;28;20478;-72
2023/01/09 07:56:48;;;;;;;8.88;1.77;;;5.70;99.90;;;4.64;100.00;100495.97;4152880;28;20036;-72
2023/01/09 07:58:49;;;;;;;5.55;1.40;;;5.70;99.90;;;4.65;100.00;100508.94;4170354;28;20037;-72
2023/01/09 08:00:50;;;;;;;5.03;1.65;;;5.60;99.90;;;4.74;100.00;100504.75;4170062;28;20029;-71
2023/01/09 08:02:54;;;;;;;7.68;1.77;;;5.70;99.90;;;4.71;100.00;100499.78;4152722;28;20085;-72
2023/01/09 08:04:55;;;;;;;5.65;1.20;;;5.70;99.90;;;4.80;100.00;100499.03;4152813;28;20108;-72
2023/01/09 08:06:56;;;;;;;8.15;1.35;;;5.70;99.90;;;4.77;100.00;100507.13;4152708;28;20042;-72
2023/01/09 08:08:58;;;;;;;8.13;1.67;;;5.70;99.90;;;4.80;100.00;100499.03;4170003;28;20030;-72
2023/01/09 08:10:59;;;;;;;8.02;2.22;;;5.70;99.90;;;4.90;100.00;100505.97;4152928;28;20026;-72
2023/01/09 08:13:00;;;;;;;7.47;1.58;;;5.80;99.90;;;4.93;100.00;100516.19;4179094;28;20025;-72
2023/01/09 08:15:01;;;;;;;8.60;2.30;;;5.80;99.90;;;4.95;100.00;100516.06;4174077;28;20519;-71
2023/01/09 08:17:02;;;;;;;9.77;1.58;;;5.90;99.90;;;4.97;100.00;100529.81;4152542;28;20033;-72
2023/01/09 08:19:02;;;;;;;5.90;1.30;;;5.90;99.90;;;5.01;100.00;100526.03;4170258;28;20033;-72
2023/01/09 08:21:03;;;;;;;8.20;1.80;;;6.00;99.90;;;5.12;100.00;100520.72;4152413;28;20036;-72
2023/01/09 08:23:04;;;;;;;13.27;1.63;;;6.10;99.90;;;5.33;100.00;100537.25;4152273;28;20456;-72
2023/01/09 08:25:06;;;;;;;7.80;1.85;;;6.20;99.90;;;5.43;100.00;100535.56;4185126;28;20029;-72
2023/01/09 08:27:07;;;;;;;7.88;1.73;;;6.30;99.90;;;5.43;100.00;100555.63;4152437;28;20513;-72
2023/01/09 08:29:08;;;;;;;8.43;1.85;;;6.30;99.90;;;5.44;100.00;100557.28;4152516;28;20029;-71
2023/01/09 08:31:09;;;;;;;7.28;1.80;;;6.30;99.90;;;5.39;100.00;100560.28;4169959;28;20033;-72
2023/01/09 08:33:10;;;;;;;10.80;2.13;;;6.30;99.90;;;5.44;100.00;100568.56;4152250;28;20050;-72
2023/01/09 08:35:11;;;;;;;10.02;1.60;;;6.30;99.90;;;5.39;100.00;100583.00;4169956;28;20026;-72
2023/01/09 08:37:12;;;;;;;7.88;1.65;;;6.30;99.90;;;5.28;100.00;100578.66;4152371;28;20022;-72
2023/01/09 08:39:13;;;;;;;7.82;1.95;;;6.30;99.90;;;5.32;100.00;100566.97;4177488;28;20063;-72
2023/01/09 08:48:14;;;;;;;12.65;1.58;;;6.40;99.90;;;5.47;100.00;100599.72;4154692;28;20064;-72